sensor_id;sensor_type;location;lat;lon;timestamp;pressure;altitude;pressure_sealevel;temperature;humidity
80149;BME280;69473;42.426;26.644;2023-04-24T00:00:55;98954.84;;;8.78;64.70
80149;BME280;69473;42.426;26.644;2023-04-24T00:03:26;98960.00;;;8.73;63.73
80149;BME280;69473;42.426;26.644;2023-04-24T00:05:54;98959.09;;;8.65;64.33
80149;BME280;69473;42.426;26.644;2023-04-24T00:08:20;98965.09;;;8.56;65.34
80149;BME280;69473;42.426;26.644;2023-04-24T00:10:45;98958.19;;;8.55;65.14
80149;BME280;69473;42.426;26.644;2023-04-24T00:13:11;98953.00;;;8.46;65.00
80149;BME280;69473;42.426;26.644;2023-04-24T00:15:37;98945.28;;;8.51;64.97
80149;BME280;69473;42.426;26.644;2023-04-24T00:18:02;98946.16;;;8.54;65.83
80149;BME280;69473;42.426;26.644;2023-04-24T00:20:28;98942.72;;;8.59;64.63
80149;BME280;69473;42.426;26.644;2023-04-24T00:22:55;98935.88;;;8.64;64.82
80149;BME280;69473;42.426;26.644;2023-04-24T00:25:21;98942.75;;;8.65;63.92
80149;BME280;69473;42.426;26.644;2023-04-24T00:27:46;98938.41;;;8.51;64.86
80149;BME280;69473;42.426;26.644;2023-04-24T00:30:12;98946.13;;;8.48;65.38
80149;BME280;69473;42.426;26.644;2023-04-24T00:32:38;98938.34;;;8.47;65.06
80149;BME280;69473;42.426;26.644;2023-04-24T00:35:04;98928.94;;;8.60;64.83
80149;BME280;69473;42.426;26.644;2023-04-24T00:37:31;98931.59;;;8.76;64.71
80149;BME280;69473;42.426;26.644;2023-04-24T00:39:56;98935.84;;;8.58;64.17
80149;BME280;69473;42.426;26.644;2023-04-24T00:42:23;98918.59;;;8.50;65.01
80149;BME280;69473;42.426;26.644;2023-04-24T00:44:49;98930.66;;;8.54;64.65
80149;BME280;69473;42.426;26.644;2023-04-24T00:47:15;98930.63;;;8.48;64.82
80149;BME280;69473;42.426;26.644;2023-04-24T00:49:40;98935.69;;;8.33;65.91
80149;BME280;69473;42.426;26.644;2023-04-24T00:52:06;98927.06;;;8.34;65.57
80149;BME280;69473;42.426;26.644;2023-04-24T00:54:34;98932.31;;;8.40;65.45
80149;BME280;69473;42.426;26.644;2023-04-24T00:57:02;98928.88;;;8.41;65.13
80149;BME280;69473;42.426;26.644;2023-04-24T00:59:28;98913.41;;;8.53;64.54
80149;BME280;69473;42.426;26.644;2023-04-24T01:01:54;98918.66;;;8.72;64.58
80149;BME280;69473;42.426;26.644;2023-04-24T01:04:20;98910.13;;;8.88;63.37
80149;BME280;69473;42.426;26.644;2023-04-24T01:06:46;98915.19;;;8.64;63.67
80149;BME280;69473;42.426;26.644;2023-04-24T01:09:12;98913.50;;;8.72;63.44
80149;BME280;69473;42.426;26.644;2023-04-24T01:11:41;98915.22;;;8.67;64.29
80149;BME280;69473;42.426;26.644;2023-04-24T01:14:08;98908.25;;;8.53;64.50
80149;BME280;69473;42.426;26.644;2023-04-24T01:16:33;98913.44;;;8.56;64.31
80149;BME280;69473;42.426;26.644;2023-04-24T01:18:59;98910.91;;;8.64;64.27
80149;BME280;69473;42.426;26.644;2023-04-24T01:21:28;98904.88;;;8.64;64.05
80149;BME280;69473;42.426;26.644;2023-04-24T01:23:56;98891.09;;;8.65;63.13
80149;BME280;69473;42.426;26.644;2023-04-24T01:26:22;98896.28;;;8.77;63.60
80149;BME280;69473;42.426;26.644;2023-04-24T01:28:48;98901.41;;;8.59;63.15
80149;BME280;69473;42.426;26.644;2023-04-24T01:31:14;98896.25;;;8.68;63.36
80149;BME280;69473;42.426;26.644;2023-04-24T01:33:42;98897.13;;;8.68;63.12
80149;BME280;69473;42.426;26.644;2023-04-24T01:36:10;98905.75;;;8.78;63.56
80149;BME280;69473;42.426;26.644;2023-04-24T01:38:36;98902.34;;;8.79;62.65
80149;BME280;69473;42.426;26.644;2023-04-24T01:41:02;98897.97;;;8.66;63.49
80149;BME280;69473;42.426;26.644;2023-04-24T01:43:28;98887.66;;;8.69;62.63
80149;BME280;69473;42.426;26.644;2023-04-24T01:45:54;98886.81;;;8.70;62.59
80149;BME280;69473;42.426;26.644;2023-04-24T01:48:20;98895.34;;;8.47;63.32
80149;BME280;69473;42.426;26.644;2023-04-24T01:50:45;98887.50;;;8.37;63.67
80149;BME280;69473;42.426;26.644;2023-04-24T01:53:11;98891.06;;;8.59;63.08
80149;BME280;69473;42.426;26.644;2023-04-24T01:55:37;98889.34;;;8.58;62.93
80149;BME280;69473;42.426;26.644;2023-04-24T01:58:02;98892.75;;;8.44;63.43
80149;BME280;69473;42.426;26.644;2023-04-24T02:00:28;98887.63;;;8.50;62.83
80149;BME280;69473;42.426;26.644;2023-04-24T02:02:53;98882.44;;;8.50;62.74
80149;BME280;69473;42.426;26.644;2023-04-24T02:05:19;98879.88;;;8.58;62.66
80149;BME280;69473;42.426;26.644;2023-04-24T02:07:45;98875.53;;;8.49;63.16
80149;BME280;69473;42.426;26.644;2023-04-24T02:10:11;98884.16;;;8.51;63.98
80149;BME280;69473;42.426;26.644;2023-04-24T02:12:36;98881.59;;;8.54;63.16
80149;BME280;69473;42.426;26.644;2023-04-24T02:15:02;98885.84;;;8.46;63.49
80149;BME280;69473;42.426;26.644;2023-04-24T02:17:28;98885.84;;;8.43;63.04
80149;BME280;69473;42.426;26.644;2023-04-24T02:19:53;98865.13;;;8.34;63.65
80149;BME280;69473;42.426;26.644;2023-04-24T02:22:19;98882.44;;;8.44;63.29
80149;BME280;69473;42.426;26.644;2023-04-24T02:24:45;98884.06;;;8.36;63.15
80149;BME280;69473;42.426;26.644;2023-04-24T02:27:10;98874.53;;;8.21;63.87
80149;BME280;69473;42.426;26.644;2023-04-24T02:29:36;98880.50;;;8.13;64.67
80149;BME280;69473;42.426;26.644;2023-04-24T02:32:02;98875.28;;;8.03;64.71
80149;BME280;69473;42.426;26.644;2023-04-24T02:34:27;98867.50;;;7.94;64.96
80149;BME280;69473;42.426;26.644;2023-04-24T02:36:53;98876.94;;;7.86;65.17
80149;BME280;69473;42.426;26.644;2023-04-24T02:39:21;98867.50;;;7.93;64.56
80149;BME280;69473;42.426;26.644;2023-04-24T02:41:47;98861.53;;;8.01;65.02
80149;BME280;69473;42.426;26.644;2023-04-24T02:44:12;98864.13;;;8.06;64.13
80149;BME280;69473;42.426;26.644;2023-04-24T02:46:38;98859.81;;;8.06;64.45
80149;BME280;69473;42.426;26.644;2023-04-24T02:49:04;98851.25;;;8.07;64.15
80149;BME280;69473;42.426;26.644;2023-04-24T02:51:29;98866.75;;;8.14;63.40
80149;BME280;69473;42.426;26.644;2023-04-24T02:53:56;98859.81;;;8.02;63.15
80149;BME280;69473;42.426;26.644;2023-04-24T02:56:21;98864.13;;;8.06;63.21
80149;BME280;69473;42.426;26.644;2023-04-24T02:58:47;98862.50;;;8.20;62.94
80149;BME280;69473;42.426;26.644;2023-04-24T03:01:12;98873.69;;;8.27;62.66
80149;BME280;69473;42.426;26.644;2023-04-24T03:03:39;98865.91;;;8.18;62.74
80149;BME280;69473;42.426;26.644;2023-04-24T03:06:05;98872.75;;;8.11;62.45
80149;BME280;69473;42.426;26.644;2023-04-24T03:08:32;98856.34;;;7.95;63.34
80149;BME280;69473;42.426;26.644;2023-04-24T03:10:57;98870.97;;;7.99;63.11
80149;BME280;69473;42.426;26.644;2023-04-24T03:13:23;98879.63;;;8.07;62.78
80149;BME280;69473;42.426;26.644;2023-04-24T03:15:48;98871.91;;;8.07;62.46
80149;BME280;69473;42.426;26.644;2023-04-24T03:18:14;98871.00;;;8.02;62.49
80149;BME280;69473;42.426;26.644;2023-04-24T03:20:39;98871.81;;;7.95;63.09
80149;BME280;69473;42.426;26.644;2023-04-24T03:23:05;98870.06;;;7.85;63.35
80149;BME280;69473;42.426;26.644;2023-04-24T03:25:31;98883.66;;;7.66;64.28
80149;BME280;69473;42.426;26.644;2023-04-24T03:27:56;98880.13;;;7.51;64.38
80149;BME280;69473;42.426;26.644;2023-04-24T03:30:22;98887.00;;;7.52;64.65
80149;BME280;69473;42.426;26.644;2023-04-24T03:32:47;98883.50;;;7.47;65.24
80149;BME280;69473;42.426;26.644;2023-04-24T03:35:13;98884.47;;;7.60;64.18
80149;BME280;69473;42.426;26.644;2023-04-24T03:37:38;98884.50;;;7.66;64.04
80149;BME280;69473;42.426;26.644;2023-04-24T03:40:04;98890.53;;;7.63;64.20
80149;BME280;69473;42.426;26.644;2023-04-24T03:42:31;98882.81;;;7.63;63.94
80149;BME280;69473;42.426;26.644;2023-04-24T03:44:56;98880.28;;;7.73;63.66
80149;BME280;69473;42.426;26.644;2023-04-24T03:47:22;98891.50;;;7.81;63.33
80149;BME280;69473;42.426;26.644;2023-04-24T03:49:47;98882.09;;;7.89;63.03
80149;BME280;69473;42.426;26.644;2023-04-24T03:52:13;98882.19;;;8.04;62.98
80149;BME280;69473;42.426;26.644;2023-04-24T03:54:38;98884.00;;;8.21;62.17
80149;BME280;69473;42.426;26.644;2023-04-24T03:57:04;98879.00;;;8.48;61.94
80149;BME280;69473;42.426;26.644;2023-04-24T03:59:30;98882.50;;;8.81;60.66
80149;BME280;69473;42.426;26.644;2023-04-24T04:01:56;98884.31;;;9.04;60.46
80149;BME280;69473;42.426;26.644;2023-04-24T04:04:21;98882.59;;;9.27;59.29
80149;BME280;69473;42.426;26.644;2023-04-24T04:06:47;98873.97;;;9.40;58.84
80149;BME280;69473;42.426;26.644;2023-04-24T04:09:13;98891.22;;;9.54;59.03
80149;BME280;69473;42.426;26.644;2023-04-24T04:11:39;98884.31;;;9.71;58.49
80149;BME280;69473;42.426;26.644;2023-04-24T04:14:04;98890.31;;;9.81;58.34
80149;BME280;69473;42.426;26.644;2023-04-24T04:16:30;98879.97;;;9.94;57.65
80149;BME280;69473;42.426;26.644;2023-04-24T04:18:56;98887.66;;;10.25;57.09
80149;BME280;69473;42.426;26.644;2023-04-24T04:21:22;98889.34;;;10.45;55.79
80149;BME280;69473;42.426;26.644;2023-04-24T04:23:47;98875.47;;;10.55;54.91
80149;BME280;69473;42.426;26.644;2023-04-24T04:26:13;98903.00;;;10.74;55.87
80149;BME280;69473;42.426;26.644;2023-04-24T04:28:39;98902.94;;;10.86;54.94
80149;BME280;69473;42.426;26.644;2023-04-24T04:31:05;98902.84;;;11.05;55.73
80149;BME280;69473;42.426;26.644;2023-04-24T04:33:33;98902.75;;;11.17;54.99
80149;BME280;69473;42.426;26.644;2023-04-24T04:35:59;98897.41;;;11.42;54.01
80149;BME280;69473;42.426;26.644;2023-04-24T04:38:25;98897.19;;;11.69;53.07
80149;BME280;69473;42.426;26.644;2023-04-24T04:40:55;98883.19;;;11.89;51.35
80149;BME280;69473;42.426;26.644;2023-04-24T04:43:24;98890.06;;;11.93;52.31
80149;BME280;69473;42.426;26.644;2023-04-24T04:45:51;98890.81;;;12.04;52.92
80149;BME280;69473;42.426;26.644;2023-04-24T04:48:20;98895.84;;;12.18;51.01
80149;BME280;69473;42.426;26.644;2023-04-24T04:50:45;98888.75;;;12.37;51.43
80149;BME280;69473;42.426;26.644;2023-04-24T04:53:11;98891.06;;;12.58;49.31
80149;BME280;69473;42.426;26.644;2023-04-24T04:55:37;98887.75;;;12.47;49.38
80149;BME280;69473;42.426;26.644;2023-04-24T04:58:03;98885.66;;;12.74;49.17
80149;BME280;69473;42.426;26.644;2023-04-24T05:00:28;98883.69;;;12.91;48.59
80149;BME280;69473;42.426;26.644;2023-04-24T05:02:59;98884.50;;;12.96;47.36
80149;BME280;69473;42.426;26.644;2023-04-24T05:05:24;98885.69;;;12.70;50.09
80149;BME280;69473;42.426;26.644;2023-04-24T05:07:50;98888.44;;;13.25;46.86
80149;BME280;69473;42.426;26.644;2023-04-24T05:10:15;98893.47;;;13.37;46.07
80149;BME280;69473;42.426;26.644;2023-04-24T05:12:41;98884.97;;;13.23;48.31
80149;BME280;69473;42.426;26.644;2023-04-24T05:15:06;98882.75;;;13.55;46.73
80149;BME280;69473;42.426;26.644;2023-04-24T05:17:32;98887.53;;;13.80;45.52
80149;BME280;69473;42.426;26.644;2023-04-24T05:19:58;98885.66;;;13.88;46.09
80149;BME280;69473;42.426;26.644;2023-04-24T05:22:23;98869.22;;;13.84;45.06
80149;BME280;69473;42.426;26.644;2023-04-24T05:24:49;98888.78;;;14.08;44.29
80149;BME280;69473;42.426;26.644;2023-04-24T05:27:14;98885.31;;;14.06;43.61
80149;BME280;69473;42.426;26.644;2023-04-24T05:29:40;98888.94;;;15.27;42.42
80149;BME280;69473;42.426;26.644;2023-04-24T05:32:06;98880.16;;;15.65;39.97
80149;BME280;69473;42.426;26.644;2023-04-24T05:34:32;98891.50;;;16.62;38.35
80149;BME280;69473;42.426;26.644;2023-04-24T05:36:58;98883.69;;;16.92;36.53
80149;BME280;69473;42.426;26.644;2023-04-24T05:39:23;98889.53;;;16.70;37.65
80149;BME280;69473;42.426;26.644;2023-04-24T05:41:50;98886.00;;;17.84;36.94
80149;BME280;69473;42.426;26.644;2023-04-24T05:44:16;98883.88;;;19.14;34.52
80149;BME280;69473;42.426;26.644;2023-04-24T05:46:42;98882.16;;;19.35;33.19
80149;BME280;69473;42.426;26.644;2023-04-24T05:49:07;98882.28;;;19.32;32.82
80149;BME280;69473;42.426;26.644;2023-04-24T05:51:33;98879.00;;;19.91;33.22
80149;BME280;69473;42.426;26.644;2023-04-24T05:53:58;98885.56;;;20.22;32.54
80149;BME280;69473;42.426;26.644;2023-04-24T05:56:24;98872.22;;;20.45;32.71
80149;BME280;69473;42.426;26.644;2023-04-24T05:58:49;98879.06;;;20.49;32.44
80149;BME280;69473;42.426;26.644;2023-04-24T06:01:15;98874.56;;;20.72;31.12
80149;BME280;69473;42.426;26.644;2023-04-24T06:03:41;98881.22;;;20.00;31.93
80149;BME280;69473;42.426;26.644;2023-04-24T06:06:07;98890.94;;;19.56;32.85
80149;BME280;69473;42.426;26.644;2023-04-24T06:08:33;98882.53;;;20.11;32.16
80149;BME280;69473;42.426;26.644;2023-04-24T06:10:58;98883.22;;;21.12;31.25
80149;BME280;69473;42.426;26.644;2023-04-24T06:13:24;98876.81;;;21.36;30.47
80149;BME280;69473;42.426;26.644;2023-04-24T06:15:50;98872.72;;;20.35;31.24
80149;BME280;69473;42.426;26.644;2023-04-24T06:18:16;98883.81;;;21.37;30.38
80149;BME280;69473;42.426;26.644;2023-04-24T06:20:42;98889.63;;;20.08;31.14
80149;BME280;69473;42.426;26.644;2023-04-24T06:23:07;98870.16;;;22.33;28.46
80149;BME280;69473;42.426;26.644;2023-04-24T06:25:34;98874.53;;;21.82;29.86
80149;BME280;69473;42.426;26.644;2023-04-24T06:27:59;98888.78;;;20.87;30.36
80149;BME280;69473;42.426;26.644;2023-04-24T06:30:25;98889.53;;;22.99;28.97
80149;BME280;69473;42.426;26.644;2023-04-24T06:32:52;98888.22;;;22.74;28.73
80149;BME280;69473;42.426;26.644;2023-04-24T06:35:17;98876.28;;;21.64;30.54
80149;BME280;69473;42.426;26.644;2023-04-24T06:37:43;98882.22;;;20.37;30.79
80149;BME280;69473;42.426;26.644;2023-04-24T06:40:09;98881.09;;;21.20;30.98
80149;BME280;69473;42.426;26.644;2023-04-24T06:42:35;98883.13;;;22.03;29.15
80149;BME280;69473;42.426;26.644;2023-04-24T06:45:01;98889.09;;;24.29;26.98
80149;BME280;69473;42.426;26.644;2023-04-24T06:47:26;98887.78;;;24.22;27.06
80149;BME280;69473;42.426;26.644;2023-04-24T06:49:52;98889.84;;;24.16;26.71
80149;BME280;69473;42.426;26.644;2023-04-24T06:52:19;98889.31;;;23.65;26.01
80149;BME280;69473;42.426;26.644;2023-04-24T06:54:45;98889.97;;;23.85;27.66
80149;BME280;69473;42.426;26.644;2023-04-24T06:57:10;98888.06;;;24.88;26.41
80149;BME280;69473;42.426;26.644;2023-04-24T06:59:36;98889.91;;;24.01;27.77
80149;BME280;69473;42.426;26.644;2023-04-24T07:02:02;98882.81;;;24.01;27.42
80149;BME280;69473;42.426;26.644;2023-04-24T07:04:28;98878.94;;;24.80;25.66
80149;BME280;69473;42.426;26.644;2023-04-24T07:06:54;98881.81;;;22.78;29.04
80149;BME280;69473;42.426;26.644;2023-04-24T07:09:22;98877.06;;;23.33;28.53
80149;BME280;69473;42.426;26.644;2023-04-24T07:11:49;98873.94;;;26.11;25.79
80149;BME280;69473;42.426;26.644;2023-04-24T07:14:15;98877.31;;;26.38;25.15
80149;BME280;69473;42.426;26.644;2023-04-24T07:16:42;98878.47;;;25.69;25.58
80149;BME280;69473;42.426;26.644;2023-04-24T07:19:07;98885.66;;;23.98;27.63
80149;BME280;69473;42.426;26.644;2023-04-24T07:21:33;98888.22;;;24.14;27.36
80149;BME280;69473;42.426;26.644;2023-04-24T07:23:58;98888.72;;;24.35;27.48
80149;BME280;69473;42.426;26.644;2023-04-24T07:26:26;98886.63;;;24.26;28.29
80149;BME280;69473;42.426;26.644;2023-04-24T07:28:53;98891.78;;;25.54;26.06
80149;BME280;69473;42.426;26.644;2023-04-24T07:31:18;98883.13;;;25.52;26.20
80149;BME280;69473;42.426;26.644;2023-04-24T07:33:44;98883.81;;;24.29;26.87
80149;BME280;69473;42.426;26.644;2023-04-24T07:36:09;98879.75;;;25.76;25.78
80149;BME280;69473;42.426;26.644;2023-04-24T07:38:47;98892.59;;;22.58;28.59
80149;BME280;69473;42.426;26.644;2023-04-24T07:41:13;98886.56;;;24.27;27.65
80149;BME280;69473;42.426;26.644;2023-04-24T07:43:39;98896.09;;;23.23;28.39
80149;BME280;69473;42.426;26.644;2023-04-24T07:46:05;98891.69;;;22.59;28.80
80149;BME280;69473;42.426;26.644;2023-04-24T07:48:31;98893.13;;;20.69;31.95
80149;BME280;69473;42.426;26.644;2023-04-24T07:50:57;98888.59;;;20.13;33.58
80149;BME280;69473;42.426;26.644;2023-04-24T07:53:22;98881.88;;;19.85;34.93
80149;BME280;69473;42.426;26.644;2023-04-24T07:55:48;98889.19;;;18.42;36.59
80149;BME280;69473;42.426;26.644;2023-04-24T07:58:13;98881.75;;;17.53;39.49
80149;BME280;69473;42.426;26.644;2023-04-24T08:00:39;98881.75;;;17.53;39.01
80149;BME280;69473;42.426;26.644;2023-04-24T08:03:04;98876.53;;;18.30;38.95
80149;BME280;69473;42.426;26.644;2023-04-24T08:05:30;98882.69;;;18.29;39.55
80149;BME280;69473;42.426;26.644;2023-04-24T08:07:56;98881.53;;;16.76;40.71
80149;BME280;69473;42.426;26.644;2023-04-24T08:10:22;98885.66;;;16.83;41.66
80149;BME280;69473;42.426;26.644;2023-04-24T08:12:49;98881.59;;;17.03;41.18
80149;BME280;69473;42.426;26.644;2023-04-24T08:15:15;98875.88;;;17.71;41.43
80149;BME280;69473;42.426;26.644;2023-04-24T08:17:40;98871.47;;;17.47;41.17
80149;BME280;69473;42.426;26.644;2023-04-24T08:20:06;98875.38;;;16.77;43.00
80149;BME280;69473;42.426;26.644;2023-04-24T08:22:35;98879.22;;;17.23;43.27
80149;BME280;69473;42.426;26.644;2023-04-24T08:25:01;98876.31;;;17.33;42.10
80149;BME280;69473;42.426;26.644;2023-04-24T08:27:27;98878.19;;;17.01;43.80
80149;BME280;69473;42.426;26.644;2023-04-24T08:29:53;98880.63;;;17.05;41.51
80149;BME280;69473;42.426;26.644;2023-04-24T08:32:19;98868.47;;;18.11;40.93
80149;BME280;69473;42.426;26.644;2023-04-24T08:34:45;98861.69;;;17.78;42.34
80149;BME280;69473;42.426;26.644;2023-04-24T08:37:11;98867.56;;;17.60;42.57
80149;BME280;69473;42.426;26.644;2023-04-24T08:39:37;98864.47;;;18.24;42.60
80149;BME280;69473;42.426;26.644;2023-04-24T08:42:04;98853.91;;;18.02;42.37
80149;BME280;69473;42.426;26.644;2023-04-24T08:44:33;98855.69;;;18.74;41.61
80149;BME280;69473;42.426;26.644;2023-04-24T08:47:01;98853.38;;;18.64;42.87
80149;BME280;69473;42.426;26.644;2023-04-24T08:49:28;98848.84;;;18.21;42.29
80149;BME280;69473;42.426;26.644;2023-04-24T08:51:55;98846.75;;;18.07;43.05
80149;BME280;69473;42.426;26.644;2023-04-24T08:54:21;98847.16;;;18.20;42.80
80149;BME280;69473;42.426;26.644;2023-04-24T08:56:48;98845.06;;;18.30;42.79
80149;BME280;69473;42.426;26.644;2023-04-24T08:59:15;98844.69;;;18.15;42.65
80149;BME280;69473;42.426;26.644;2023-04-24T09:01:41;98845.72;;;18.58;42.02
80149;BME280;69473;42.426;26.644;2023-04-24T09:04:09;98839.69;;;18.56;42.36
80149;BME280;69473;42.426;26.644;2023-04-24T09:06:37;98838.78;;;18.57;41.87
80149;BME280;69473;42.426;26.644;2023-04-24T09:09:02;98832.56;;;17.88;42.38
80149;BME280;69473;42.426;26.644;2023-04-24T09:11:31;98837.84;;;18.11;42.85
80149;BME280;69473;42.426;26.644;2023-04-24T09:13:58;98838.78;;;18.57;41.12
80149;BME280;69473;42.426;26.644;2023-04-24T09:16:25;98833.53;;;18.81;43.05
80149;BME280;69473;42.426;26.644;2023-04-24T09:18:52;98833.41;;;18.37;41.30
80149;BME280;69473;42.426;26.644;2023-04-24T09:21:20;98835.81;;;18.66;41.53
80149;BME280;69473;42.426;26.644;2023-04-24T09:23:46;98823.59;;;18.18;42.69
80149;BME280;69473;42.426;26.644;2023-04-24T09:26:12;98821.66;;;18.23;41.21
80149;BME280;69473;42.426;26.644;2023-04-24T09:28:40;98832.06;;;18.74;40.09
80149;BME280;69473;42.426;26.644;2023-04-24T09:31:18;98823.31;;;18.50;42.93
80149;BME280;69473;42.426;26.644;2023-04-24T09:33:58;98826.63;;;18.55;42.18
80149;BME280;69473;42.426;26.644;2023-04-24T09:36:29;98828.06;;;18.40;42.98
80149;BME280;69473;42.426;26.644;2023-04-24T09:38:59;98818.88;;;18.28;41.43
80149;BME280;69473;42.426;26.644;2023-04-24T09:41:26;98816.28;;;18.50;42.50
80149;BME280;69473;42.426;26.644;2023-04-24T09:43:53;98815.47;;;18.95;41.33
80149;BME280;69473;42.426;26.644;2023-04-24T09:46:20;98816.44;;;19.14;39.87
80149;BME280;69473;42.426;26.644;2023-04-24T09:48:47;98812.75;;;19.19;41.55
80149;BME280;69473;42.426;26.644;2023-04-24T09:51:13;98816.09;;;19.02;40.72
80149;BME280;69473;42.426;26.644;2023-04-24T09:53:46;98811.06;;;19.18;41.59
80149;BME280;69473;42.426;26.644;2023-04-24T09:56:12;98813.03;;;18.43;41.97
80149;BME280;69473;42.426;26.644;2023-04-24T09:58:40;98803.00;;;19.00;42.66
80149;BME280;69473;42.426;26.644;2023-04-24T10:01:05;98803.16;;;18.97;40.73
80149;BME280;69473;42.426;26.644;2023-04-24T10:03:33;98811.91;;;18.96;40.52
80149;BME280;69473;42.426;26.644;2023-04-24T10:06:03;98803.75;;;18.82;39.19
80149;BME280;69473;42.426;26.644;2023-04-24T10:08:34;98805.91;;;18.94;40.29
80149;BME280;69473;42.426;26.644;2023-04-24T10:11:01;98800.94;;;18.86;41.09
80149;BME280;69473;42.426;26.644;2023-04-24T10:13:28;98797.03;;;18.75;41.63
80149;BME280;69473;42.426;26.644;2023-04-24T10:15:54;98795.88;;;18.58;40.33
80149;BME280;69473;42.426;26.644;2023-04-24T10:18:21;98789.31;;;18.70;41.62
80149;BME280;69473;42.426;26.644;2023-04-24T10:20:47;98785.59;;;19.40;40.22
80149;BME280;69473;42.426;26.644;2023-04-24T10:23:13;98785.44;;;18.80;41.36
80149;BME280;69473;42.426;26.644;2023-04-24T10:25:39;98787.25;;;19.00;41.61
80149;BME280;69473;42.426;26.644;2023-04-24T10:28:05;98774.78;;;19.05;41.37
80149;BME280;69473;42.426;26.644;2023-04-24T10:30:35;98789.50;;;19.52;39.53
80149;BME280;69473;42.426;26.644;2023-04-24T10:33:05;98769.88;;;19.81;39.52
80149;BME280;69473;42.426;26.644;2023-04-24T10:35:37;98781.16;;;18.78;40.44
80149;BME280;69473;42.426;26.644;2023-04-24T10:38:18;98776.47;;;18.62;41.64
80149;BME280;69473;42.426;26.644;2023-04-24T10:40:47;98783.69;;;18.57;40.56
80149;BME280;69473;42.426;26.644;2023-04-24T10:43:17;98771.25;;;19.06;39.86
80149;BME280;69473;42.426;26.644;2023-04-24T10:46:03;98772.75;;;19.54;39.61
80149;BME280;69473;42.426;26.644;2023-04-24T10:48:31;98775.78;;;18.81;42.86
80149;BME280;69473;42.426;26.644;2023-04-24T10:50:58;98769.50;;;19.07;40.85
80149;BME280;69473;42.426;26.644;2023-04-24T10:53:27;98769.03;;;19.18;41.15
80149;BME280;69473;42.426;26.644;2023-04-24T10:56:07;98755.81;;;19.82;40.05
80149;BME280;69473;42.426;26.644;2023-04-24T10:58:40;98758.19;;;19.68;39.06
80149;BME280;69473;42.426;26.644;2023-04-24T11:01:08;98764.47;;;19.43;40.53
80149;BME280;69473;42.426;26.644;2023-04-24T11:03:35;98756.66;;;19.42;39.06
80149;BME280;69473;42.426;26.644;2023-04-24T11:06:08;98750.03;;;19.94;38.27
80149;BME280;69473;42.426;26.644;2023-04-24T11:08:39;98757.56;;;19.61;40.00
80149;BME280;69473;42.426;26.644;2023-04-24T11:11:08;98747.69;;;19.68;38.15
80149;BME280;69473;42.426;26.644;2023-04-24T11:16:33;98742.41;;;19.27;40.52
80149;BME280;69473;42.426;26.644;2023-04-24T11:19:07;98743.66;;;19.79;37.96
80149;BME280;69473;42.426;26.644;2023-04-24T11:24:39;98747.53;;;19.71;39.55
80149;BME280;69473;42.426;26.644;2023-04-24T11:27:12;98747.31;;;20.15;37.81
80149;BME280;69473;42.426;26.644;2023-04-24T11:29:51;98738.06;;;19.46;38.80
80149;BME280;69473;42.426;26.644;2023-04-24T11:35:05;98731.50;;;19.36;39.28
80149;BME280;69473;42.426;26.644;2023-04-24T11:37:37;98736.22;;;19.48;37.62
80149;BME280;69473;42.426;26.644;2023-04-24T11:40:04;98730.25;;;18.82;39.45
80149;BME280;69473;42.426;26.644;2023-04-24T11:42:35;98739.44;;;18.48;41.09
80149;BME280;69473;42.426;26.644;2023-04-24T11:45:01;98733.59;;;18.63;41.40
80149;BME280;69473;42.426;26.644;2023-04-24T11:47:29;98727.41;;;19.08;39.16
80149;BME280;69473;42.426;26.644;2023-04-24T11:49:55;98727.03;;;19.58;38.57
80149;BME280;69473;42.426;26.644;2023-04-24T11:52:20;98725.31;;;19.17;39.14
80149;BME280;69473;42.426;26.644;2023-04-24T11:54:50;98720.59;;;19.45;36.99
80149;BME280;69473;42.426;26.644;2023-04-24T11:57:18;98715.88;;;19.33;37.23
80149;BME280;69473;42.426;26.644;2023-04-24T11:59:44;98707.88;;;19.96;39.33
80149;BME280;69473;42.426;26.644;2023-04-24T12:02:20;98706.78;;;19.81;39.37
80149;BME280;69473;42.426;26.644;2023-04-24T12:04:46;98691.53;;;21.17;35.36
80149;BME280;69473;42.426;26.644;2023-04-24T12:07:11;98695.66;;;21.40;36.53
80149;BME280;69473;42.426;26.644;2023-04-24T12:09:55;98690.31;;;21.41;37.15
80149;BME280;69473;42.426;26.644;2023-04-24T12:12:25;98685.03;;;21.07;35.39
80149;BME280;69473;42.426;26.644;2023-04-24T12:14:56;98682.66;;;21.70;36.44
80149;BME280;69473;42.426;26.644;2023-04-24T12:17:31;98674.03;;;21.16;37.05
80149;BME280;69473;42.426;26.644;2023-04-24T12:20:02;98679.72;;;20.17;37.63
80149;BME280;69473;42.426;26.644;2023-04-24T12:22:50;98672.63;;;20.74;38.36
80149;BME280;69473;42.426;26.644;2023-04-24T12:25:16;98666.28;;;20.95;38.00
80149;BME280;69473;42.426;26.644;2023-04-24T12:27:46;98674.56;;;21.40;37.08
80149;BME280;69473;42.426;26.644;2023-04-24T12:30:15;98663.66;;;20.78;36.50
80149;BME280;69473;42.426;26.644;2023-04-24T12:32:46;98667.44;;;21.25;38.10
80149;BME280;69473;42.426;26.644;2023-04-24T12:35:13;98650.38;;;21.14;36.89
80149;BME280;69473;42.426;26.644;2023-04-24T12:37:41;98650.91;;;21.21;36.62
80149;BME280;69473;42.426;26.644;2023-04-24T12:40:10;98646.81;;;20.81;37.81
80149;BME280;69473;42.426;26.644;2023-04-24T12:42:43;98640.88;;;20.77;37.35
80149;BME280;69473;42.426;26.644;2023-04-24T12:45:09;98636.56;;;20.93;36.74
80149;BME280;69473;42.426;26.644;2023-04-24T12:47:37;98627.91;;;20.19;38.40
80149;BME280;69473;42.426;26.644;2023-04-24T12:50:03;98637.09;;;19.91;38.47
80149;BME280;69473;42.426;26.644;2023-04-24T12:52:29;98639.16;;;20.03;39.39
80149;BME280;69473;42.426;26.644;2023-04-24T12:54:57;98637.53;;;19.82;38.96
80149;BME280;69473;42.426;26.644;2023-04-24T12:57:25;98634.00;;;19.63;38.72
80149;BME280;69473;42.426;26.644;2023-04-24T12:59:54;98635.69;;;19.64;38.67